sensor_id;sensor_type;location;lat;lon;timestamp;P1;durP1;ratioP1;P2;durP2;ratioP2
21122;SDS011;10719;48.130;11.630;2023-05-29T00:00:32;17.42;;;5.55;;
21122;SDS011;10719;48.130;11.630;2023-05-29T00:02:58;15.18;;;5.22;;
21122;SDS011;10719;48.130;11.630;2023-05-29T00:05:24;16.92;;;5.18;;
21122;SDS011;10719;48.130;11.630;2023-05-29T00:07:50;15.80;;;5.28;;
21122;SDS011;10719;48.130;11.630;2023-05-29T00:10:15;18.05;;;5.07;;
21122;SDS011;10719;48.130;11.630;2023-05-29T00:12:42;16.83;;;4.43;;
21122;SDS011;10719;48.130;11.630;2023-05-29T00:15:08;14.10;;;4.78;;
21122;SDS011;10719;48.130;11.630;2023-05-29T00:17:35;13.30;;;5.03;;
21122;SDS011;10719;48.130;11.630;2023-05-29T00:20:01;12.35;;;4.60;;
21122;SDS011;10719;48.130;11.630;2023-05-29T00:22:36;13.55;;;4.68;;
21122;SDS011;10719;48.130;11.630;2023-05-29T00:25:06;15.48;;;4.63;;
21122;SDS011;10719;48.130;11.630;2023-05-29T00:27:32;10.30;;;4.13;;
21122;SDS011;10719;48.130;11.630;2023-05-29T00:30:01;13.45;;;4.47;;
21122;SDS011;10719;48.130;11.630;2023-05-29T00:32:28;14.63;;;4.40;;
21122;SDS011;10719;48.130;11.630;2023-05-29T00:34:54;14.65;;;4.43;;
21122;SDS011;10719;48.130;11.630;2023-05-29T00:37:20;11.75;;;3.72;;
21122;SDS011;10719;48.130;11.630;2023-05-29T00:39:49;15.10;;;4.28;;
21122;SDS011;10719;48.130;11.630;2023-05-29T00:42:15;10.57;;;3.50;;
21122;SDS011;10719;48.130;11.630;2023-05-29T00:44:41;15.07;;;4.28;;
21122;SDS011;10719;48.130;11.630;2023-05-29T00:47:06;11.07;;;4.05;;
21122;SDS011;10719;48.130;11.630;2023-05-29T00:49:32;11.13;;;3.88;;
21122;SDS011;10719;48.130;11.630;2023-05-29T00:52:00;12.68;;;3.53;;
21122;SDS011;10719;48.130;11.630;2023-05-29T00:54:28;12.63;;;4.43;;
21122;SDS011;10719;48.130;11.630;2023-05-29T00:56:55;13.13;;;4.05;;
21122;SDS011;10719;48.130;11.630;2023-05-29T00:59:22;12.15;;;4.53;;
21122;SDS011;10719;48.130;11.630;2023-05-29T01:01:48;13.80;;;3.80;;
21122;SDS011;10719;48.130;11.630;2023-05-29T01:04:15;11.85;;;3.63;;
21122;SDS011;10719;48.130;11.630;2023-05-29T01:06:42;10.85;;;3.75;;
21122;SDS011;10719;48.130;11.630;2023-05-29T01:09:07;14.18;;;4.72;;
21122;SDS011;10719;48.130;11.630;2023-05-29T01:14:17;12.23;;;3.72;;
21122;SDS011;10719;48.130;11.630;2023-05-29T01:17:06;11.32;;;3.55;;
21122;SDS011;10719;48.130;11.630;2023-05-29T01:22:27;10.40;;;3.40;;
21122;SDS011;10719;48.130;11.630;2023-05-29T01:25:20;12.20;;;3.85;;
21122;SDS011;10719;48.130;11.630;2023-05-29T01:27:54;14.95;;;4.65;;
21122;SDS011;10719;48.130;11.630;2023-05-29T01:30:25;12.02;;;4.18;;
21122;SDS011;10719;48.130;11.630;2023-05-29T01:32:53;13.10;;;3.97;;
21122;SDS011;10719;48.130;11.630;2023-05-29T01:35:19;13.90;;;3.92;;
21122;SDS011;10719;48.130;11.630;2023-05-29T01:37:45;11.10;;;3.50;;
21122;SDS011;10719;48.130;11.630;2023-05-29T01:40:10;11.57;;;3.75;;
21122;SDS011;10719;48.130;11.630;2023-05-29T01:42:36;12.48;;;3.80;;
21122;SDS011;10719;48.130;11.630;2023-05-29T01:45:02;12.98;;;3.78;;
21122;SDS011;10719;48.130;11.630;2023-05-29T01:47:49;9.80;;;3.60;;
21122;SDS011;10719;48.130;11.630;2023-05-29T01:50:15;13.55;;;3.72;;
21122;SDS011;10719;48.130;11.630;2023-05-29T01:52:43;10.60;;;3.63;;
21122;SDS011;10719;48.130;11.630;2023-05-29T01:55:09;11.85;;;3.63;;
21122;SDS011;10719;48.130;11.630;2023-05-29T01:57:35;12.20;;;3.80;;
21122;SDS011;10719;48.130;11.630;2023-05-29T02:00:03;12.02;;;3.78;;
21122;SDS011;10719;48.130;11.630;2023-05-29T02:02:40;11.63;;;3.97;;
21122;SDS011;10719;48.130;11.630;2023-05-29T02:05:07;13.07;;;4.15;;
21122;SDS011;10719;48.130;11.630;2023-05-29T02:07:34;12.68;;;3.60;;
21122;SDS011;10719;48.130;11.630;2023-05-29T02:10:01;9.00;;;3.55;;
21122;SDS011;10719;48.130;11.630;2023-05-29T02:12:30;12.32;;;3.88;;
21122;SDS011;10719;48.130;11.630;2023-05-29T02:14:56;12.02;;;3.70;;
21122;SDS011;10719;48.130;11.630;2023-05-29T02:17:22;10.05;;;3.30;;
21122;SDS011;10719;48.130;11.630;2023-05-29T02:19:48;9.15;;;2.92;;
21122;SDS011;10719;48.130;11.630;2023-05-29T02:22:13;8.02;;;2.65;;
21122;SDS011;10719;48.130;11.630;2023-05-29T02:24:39;9.75;;;3.45;;
21122;SDS011;10719;48.130;11.630;2023-05-29T02:27:05;8.52;;;3.20;;
21122;SDS011;10719;48.130;11.630;2023-05-29T02:29:31;8.95;;;3.10;;
21122;SDS011;10719;48.130;11.630;2023-05-29T02:31:57;11.70;;;3.90;;
21122;SDS011;10719;48.130;11.630;2023-05-29T02:34:22;9.13;;;3.15;;
21122;SDS011;10719;48.130;11.630;2023-05-29T02:36:49;8.18;;;2.88;;
21122;SDS011;10719;48.130;11.630;2023-05-29T02:39:16;8.95;;;3.10;;
21122;SDS011;10719;48.130;11.630;2023-05-29T02:41:42;6.03;;;2.53;;
21122;SDS011;10719;48.130;11.630;2023-05-29T02:44:08;11.18;;;3.28;;
21122;SDS011;10719;48.130;11.630;2023-05-29T02:46:33;11.80;;;3.45;;
21122;SDS011;10719;48.130;11.630;2023-05-29T02:48:59;12.13;;;3.22;;
21122;SDS011;10719;48.130;11.630;2023-05-29T02:51:25;11.10;;;3.75;;
21122;SDS011;10719;48.130;11.630;2023-05-29T02:53:50;10.70;;;3.60;;
21122;SDS011;10719;48.130;11.630;2023-05-29T02:56:16;10.07;;;2.95;;
21122;SDS011;10719;48.130;11.630;2023-05-29T02:58:41;8.85;;;2.97;;
21122;SDS011;10719;48.130;11.630;2023-05-29T03:01:07;9.80;;;3.45;;
21122;SDS011;10719;48.130;11.630;2023-05-29T03:03:33;9.68;;;3.00;;
21122;SDS011;10719;48.130;11.630;2023-05-29T03:05:59;10.88;;;3.75;;
21122;SDS011;10719;48.130;11.630;2023-05-29T03:08:25;13.02;;;4.00;;
21122;SDS011;10719;48.130;11.630;2023-05-29T03:10:52;11.90;;;3.72;;
21122;SDS011;10719;48.130;11.630;2023-05-29T03:13:18;16.15;;;3.72;;
21122;SDS011;10719;48.130;11.630;2023-05-29T03:15:43;11.48;;;3.83;;
21122;SDS011;10719;48.130;11.630;2023-05-29T03:18:09;7.85;;;2.83;;
21122;SDS011;10719;48.130;11.630;2023-05-29T03:20:35;8.70;;;2.78;;
21122;SDS011;10719;48.130;11.630;2023-05-29T03:23:00;10.57;;;3.25;;
21122;SDS011;10719;48.130;11.630;2023-05-29T03:25:26;8.80;;;3.10;;
21122;SDS011;10719;48.130;11.630;2023-05-29T03:27:52;11.23;;;3.47;;
21122;SDS011;10719;48.130;11.630;2023-05-29T03:30:17;7.15;;;2.40;;
21122;SDS011;10719;48.130;11.630;2023-05-29T03:32:45;9.80;;;3.22;;
21122;SDS011;10719;48.130;11.630;2023-05-29T03:35:11;12.15;;;3.35;;
21122;SDS011;10719;48.130;11.630;2023-05-29T03:37:36;8.15;;;2.75;;
21122;SDS011;10719;48.130;11.630;2023-05-29T03:40:02;9.32;;;2.75;;
21122;SDS011;10719;48.130;11.630;2023-05-29T03:42:30;9.13;;;3.03;;
21122;SDS011;10719;48.130;11.630;2023-05-29T03:44:58;6.35;;;2.42;;
21122;SDS011;10719;48.130;11.630;2023-05-29T03:47:24;8.70;;;3.20;;
21122;SDS011;10719;48.130;11.630;2023-05-29T03:49:50;9.02;;;3.15;;
21122;SDS011;10719;48.130;11.630;2023-05-29T03:52:16;8.90;;;3.30;;
21122;SDS011;10719;48.130;11.630;2023-05-29T03:54:41;11.15;;;3.70;;
21122;SDS011;10719;48.130;11.630;2023-05-29T03:57:07;7.60;;;2.45;;
21122;SDS011;10719;48.130;11.630;2023-05-29T03:59:33;6.85;;;2.40;;
21122;SDS011;10719;48.130;11.630;2023-05-29T04:01:59;10.43;;;3.13;;
21122;SDS011;10719;48.130;11.630;2023-05-29T04:04:25;8.85;;;3.13;;
21122;SDS011;10719;48.130;11.630;2023-05-29T04:06:52;7.60;;;3.00;;
21122;SDS011;10719;48.130;11.630;2023-05-29T04:09:17;13.23;;;4.05;;
21122;SDS011;10719;48.130;11.630;2023-05-29T04:11:43;8.68;;;3.10;;
21122;SDS011;10719;48.130;11.630;2023-05-29T04:14:09;8.35;;;3.28;;
21122;SDS011;10719;48.130;11.630;2023-05-29T04:16:35;9.93;;;3.03;;
21122;SDS011;10719;48.130;11.630;2023-05-29T04:19:00;6.82;;;3.00;;
21122;SDS011;10719;48.130;11.630;2023-05-29T04:21:26;8.45;;;3.15;;
21122;SDS011;10719;48.130;11.630;2023-05-29T04:23:52;13.25;;;3.75;;
21122;SDS011;10719;48.130;11.630;2023-05-29T04:26:19;9.25;;;3.33;;
21122;SDS011;10719;48.130;11.630;2023-05-29T04:28:49;8.15;;;2.85;;
21122;SDS011;10719;48.130;11.630;2023-05-29T04:31:17;10.55;;;3.35;;
21122;SDS011;10719;48.130;11.630;2023-05-29T04:33:43;13.52;;;4.05;;
21122;SDS011;10719;48.130;11.630;2023-05-29T04:36:10;10.10;;;3.28;;
21122;SDS011;10719;48.130;11.630;2023-05-29T04:38:36;11.23;;;3.63;;
21122;SDS011;10719;48.130;11.630;2023-05-29T04:41:02;12.48;;;3.80;;
21122;SDS011;10719;48.130;11.630;2023-05-29T04:43:27;9.50;;;3.28;;
21122;SDS011;10719;48.130;11.630;2023-05-29T04:45:53;9.80;;;3.08;;
21122;SDS011;10719;48.130;11.630;2023-05-29T04:48:18;11.95;;;3.67;;
21122;SDS011;10719;48.130;11.630;2023-05-29T04:50:44;12.73;;;4.63;;
21122;SDS011;10719;48.130;11.630;2023-05-29T04:53:10;9.25;;;3.85;;
21122;SDS011;10719;48.130;11.630;2023-05-29T04:55:36;14.32;;;4.60;;
21122;SDS011;10719;48.130;11.630;2023-05-29T04:58:01;12.18;;;4.65;;
21122;SDS011;10719;48.130;11.630;2023-05-29T05:00:27;16.20;;;4.53;;
21122;SDS011;10719;48.130;11.630;2023-05-29T05:02:53;15.55;;;3.53;;
21122;SDS011;10719;48.130;11.630;2023-05-29T05:05:18;14.65;;;4.20;;
21122;SDS011;10719;48.130;11.630;2023-05-29T05:07:45;14.00;;;4.47;;
21122;SDS011;10719;48.130;11.630;2023-05-29T05:10:10;12.15;;;4.57;;
21122;SDS011;10719;48.130;11.630;2023-05-29T05:12:36;14.13;;;4.55;;
21122;SDS011;10719;48.130;11.630;2023-05-29T05:15:02;14.20;;;4.57;;
21122;SDS011;10719;48.130;11.630;2023-05-29T05:17:29;10.85;;;3.95;;
21122;SDS011;10719;48.130;11.630;2023-05-29T05:19:55;12.48;;;3.92;;
21122;SDS011;10719;48.130;11.630;2023-05-29T05:22:20;11.15;;;4.00;;
21122;SDS011;10719;48.130;11.630;2023-05-29T05:24:46;19.05;;;4.22;;
21122;SDS011;10719;48.130;11.630;2023-05-29T05:27:12;18.10;;;4.72;;
21122;SDS011;10719;48.130;11.630;2023-05-29T05:29:38;12.55;;;4.38;;
21122;SDS011;10719;48.130;11.630;2023-05-29T05:32:03;14.05;;;4.90;;
21122;SDS011;10719;48.130;11.630;2023-05-29T05:34:29;11.70;;;3.97;;
21122;SDS011;10719;48.130;11.630;2023-05-29T05:36:55;11.57;;;4.15;;
21122;SDS011;10719;48.130;11.630;2023-05-29T05:39:20;10.05;;;3.95;;
21122;SDS011;10719;48.130;11.630;2023-05-29T05:41:46;12.07;;;3.65;;
21122;SDS011;10719;48.130;11.630;2023-05-29T05:44:11;13.32;;;4.43;;
21122;SDS011;10719;48.130;11.630;2023-05-29T05:46:37;11.13;;;4.20;;
21122;SDS011;10719;48.130;11.630;2023-05-29T05:49:03;12.60;;;4.13;;
21122;SDS011;10719;48.130;11.630;2023-05-29T05:51:28;12.20;;;4.13;;
21122;SDS011;10719;48.130;11.630;2023-05-29T05:53:54;12.27;;;3.95;;
21122;SDS011;10719;48.130;11.630;2023-05-29T05:56:19;11.27;;;3.80;;
21122;SDS011;10719;48.130;11.630;2023-05-29T05:58:45;11.80;;;4.20;;
21122;SDS011;10719;48.130;11.630;2023-05-29T06:01:10;14.05;;;3.95;;
21122;SDS011;10719;48.130;11.630;2023-05-29T06:03:36;13.32;;;3.90;;
21122;SDS011;10719;48.130;11.630;2023-05-29T06:06:05;12.70;;;4.13;;
21122;SDS011;10719;48.130;11.630;2023-05-29T06:08:31;10.43;;;3.65;;
21122;SDS011;10719;48.130;11.630;2023-05-29T06:10:57;11.73;;;3.78;;
21122;SDS011;10719;48.130;11.630;2023-05-29T06:13:22;13.07;;;4.35;;
21122;SDS011;10719;48.130;11.630;2023-05-29T06:15:48;12.35;;;4.25;;
21122;SDS011;10719;48.130;11.630;2023-05-29T06:18:13;10.18;;;3.58;;
21122;SDS011;10719;48.130;11.630;2023-05-29T06:20:39;10.07;;;3.22;;
21122;SDS011;10719;48.130;11.630;2023-05-29T06:23:04;11.15;;;3.63;;
21122;SDS011;10719;48.130;11.630;2023-05-29T06:25:30;7.75;;;3.13;;
21122;SDS011;10719;48.130;11.630;2023-05-29T06:28:02;9.70;;;3.50;;
21122;SDS011;10719;48.130;11.630;2023-05-29T06:30:30;9.68;;;3.67;;
21122;SDS011;10719;48.130;11.630;2023-05-29T06:32:56;9.10;;;3.80;;
21122;SDS011;10719;48.130;11.630;2023-05-29T06:35:22;8.60;;;3.03;;
21122;SDS011;10719;48.130;11.630;2023-05-29T06:37:47;12.35;;;3.70;;
21122;SDS011;10719;48.130;11.630;2023-05-29T06:40:13;8.90;;;3.40;;
21122;SDS011;10719;48.130;11.630;2023-05-29T06:42:40;8.68;;;2.78;;
21122;SDS011;10719;48.130;11.630;2023-05-29T06:45:06;9.35;;;2.97;;
21122;SDS011;10719;48.130;11.630;2023-05-29T06:47:32;8.15;;;2.80;;
21122;SDS011;10719;48.130;11.630;2023-05-29T06:49:58;10.55;;;3.60;;
21122;SDS011;10719;48.130;11.630;2023-05-29T06:52:24;7.47;;;3.10;;
21122;SDS011;10719;48.130;11.630;2023-05-29T06:54:49;9.73;;;3.10;;
21122;SDS011;10719;48.130;11.630;2023-05-29T06:57:15;9.63;;;3.20;;
21122;SDS011;10719;48.130;11.630;2023-05-29T06:59:41;8.95;;;3.08;;
21122;SDS011;10719;48.130;11.630;2023-05-29T07:02:06;10.02;;;3.60;;
21122;SDS011;10719;48.130;11.630;2023-05-29T07:04:32;9.90;;;3.85;;
21122;SDS011;10719;48.130;11.630;2023-05-29T07:06:58;9.75;;;3.50;;
21122;SDS011;10719;48.130;11.630;2023-05-29T07:09:23;8.05;;;3.03;;
21122;SDS011;10719;48.130;11.630;2023-05-29T07:11:50;10.57;;;3.38;;
21122;SDS011;10719;48.130;11.630;2023-05-29T07:14:16;8.13;;;3.20;;
21122;SDS011;10719;48.130;11.630;2023-05-29T07:16:41;10.95;;;3.58;;
21122;SDS011;10719;48.130;11.630;2023-05-29T07:19:07;12.30;;;3.60;;
21122;SDS011;10719;48.130;11.630;2023-05-29T07:21:32;11.20;;;3.20;;
21122;SDS011;10719;48.130;11.630;2023-05-29T07:23:58;10.68;;;3.08;;
21122;SDS011;10719;48.130;11.630;2023-05-29T07:26:24;13.18;;;3.85;;
21122;SDS011;10719;48.130;11.630;2023-05-29T07:28:50;8.80;;;3.03;;
21122;SDS011;10719;48.130;11.630;2023-05-29T07:31:16;12.05;;;4.00;;
21122;SDS011;10719;48.130;11.630;2023-05-29T07:33:41;13.98;;;3.25;;
21122;SDS011;10719;48.130;11.630;2023-05-29T07:36:07;9.80;;;3.60;;
21122;SDS011;10719;48.130;11.630;2023-05-29T07:38:33;8.10;;;3.08;;
21122;SDS011;10719;48.130;11.630;2023-05-29T07:40:58;11.50;;;3.78;;
21122;SDS011;10719;48.130;11.630;2023-05-29T07:43:24;15.38;;;3.97;;
21122;SDS011;10719;48.130;11.630;2023-05-29T07:45:50;10.20;;;3.53;;
21122;SDS011;10719;48.130;11.630;2023-05-29T07:48:15;9.13;;;3.25;;
21122;SDS011;10719;48.130;11.630;2023-05-29T07:50:41;10.43;;;3.40;;
21122;SDS011;10719;48.130;11.630;2023-05-29T07:53:06;8.98;;;2.95;;
21122;SDS011;10719;48.130;11.630;2023-05-29T07:55:33;8.65;;;3.55;;
21122;SDS011;10719;48.130;11.630;2023-05-29T07:58:00;11.70;;;3.95;;
21122;SDS011;10719;48.130;11.630;2023-05-29T08:00:26;13.73;;;4.18;;
21122;SDS011;10719;48.130;11.630;2023-05-29T08:02:53;10.73;;;3.95;;
21122;SDS011;10719;48.130;11.630;2023-05-29T08:05:19;11.48;;;4.00;;
21122;SDS011;10719;48.130;11.630;2023-05-29T08:07:45;10.32;;;3.60;;
21122;SDS011;10719;48.130;11.630;2023-05-29T08:10:12;9.55;;;3.45;;
21122;SDS011;10719;48.130;11.630;2023-05-29T08:12:37;15.10;;;3.88;;
21122;SDS011;10719;48.130;11.630;2023-05-29T08:15:03;9.88;;;4.28;;
21122;SDS011;10719;48.130;11.630;2023-05-29T08:17:29;13.05;;;4.72;;
21122;SDS011;10719;48.130;11.630;2023-05-29T08:19:54;12.02;;;3.97;;
21122;SDS011;10719;48.130;11.630;2023-05-29T08:22:21;10.80;;;3.65;;
21122;SDS011;10719;48.130;11.630;2023-05-29T08:24:54;10.30;;;3.70;;
21122;SDS011;10719;48.130;11.630;2023-05-29T08:27:19;9.18;;;3.30;;
21122;SDS011;10719;48.130;11.630;2023-05-29T08:29:45;10.95;;;3.45;;
21122;SDS011;10719;48.130;11.630;2023-05-29T08:32:11;11.43;;;4.15;;
21122;SDS011;10719;48.130;11.630;2023-05-29T08:34:36;10.60;;;4.03;;
21122;SDS011;10719;48.130;11.630;2023-05-29T08:37:02;13.07;;;3.80;;
21122;SDS011;10719;48.130;11.630;2023-05-29T08:39:28;13.13;;;3.97;;
21122;SDS011;10719;48.130;11.630;2023-05-29T08:44:21;8.20;;;3.35;;
21122;SDS011;10719;48.130;11.630;2023-05-29T08:46:49;9.15;;;3.55;;
21122;SDS011;10719;48.130;11.630;2023-05-29T08:49:20;13.65;;;3.63;;
21122;SDS011;10719;48.130;11.630;2023-05-29T08:51:47;12.82;;;3.28;;
21122;SDS011;10719;48.130;11.630;2023-05-29T08:54:16;11.35;;;3.63;;
21122;SDS011;10719;48.130;11.630;2023-05-29T08:56:42;12.20;;;4.05;;
21122;SDS011;10719;48.130;11.630;2023-05-29T08:59:08;9.10;;;3.20;;
21122;SDS011;10719;48.130;11.630;2023-05-29T09:01:34;10.23;;;3.25;;
21122;SDS011;10719;48.130;11.630;2023-05-29T09:04:01;8.25;;;3.20;;
21122;SDS011;10719;48.130;11.630;2023-05-29T09:06:28;9.82;;;3.42;;
21122;SDS011;10719;48.130;11.630;2023-05-29T09:08:54;9.38;;;3.03;;
21122;SDS011;10719;48.130;11.630;2023-05-29T09:11:21;9.80;;;3.25;;
21122;SDS011;10719;48.130;11.630;2023-05-29T09:13:46;7.45;;;3.15;;
21122;SDS011;10719;48.130;11.630;2023-05-29T09:16:12;15.77;;;4.40;;
21122;SDS011;10719;48.130;11.630;2023-05-29T09:18:38;9.82;;;3.38;;
21122;SDS011;10719;48.130;11.630;2023-05-29T09:21:07;9.88;;;3.55;;
21122;SDS011;10719;48.130;11.630;2023-05-29T09:23:34;14.18;;;3.65;;
21122;SDS011;10719;48.130;11.630;2023-05-29T09:26:01;10.13;;;3.65;;
21122;SDS011;10719;48.130;11.630;2023-05-29T09:28:27;13.32;;;3.33;;
21122;SDS011;10719;48.130;11.630;2023-05-29T09:30:56;13.13;;;3.88;;
21122;SDS011;10719;48.130;11.630;2023-05-29T09:33:22;18.23;;;6.78;;
21122;SDS011;10719;48.130;11.630;2023-05-29T09:35:49;11.52;;;3.63;;
21122;SDS011;10719;48.130;11.630;2023-05-29T09:38:19;10.52;;;3.55;;
21122;SDS011;10719;48.130;11.630;2023-05-29T09:40:45;11.65;;;3.58;;
21122;SDS011;10719;48.130;11.630;2023-05-29T09:43:12;10.43;;;3.75;;
21122;SDS011;10719;48.130;11.630;2023-05-29T09:45:46;9.63;;;2.90;;
21122;SDS011;10719;48.130;11.630;2023-05-29T09:50:39;13.10;;;4.43;;
21122;SDS011;10719;48.130;11.630;2023-05-29T09:53:22;14.63;;;5.22;;
21122;SDS011;10719;48.130;11.630;2023-05-29T09:55:52;9.05;;;3.13;;
21122;SDS011;10719;48.130;11.630;2023-05-29T09:58:22;10.63;;;3.40;;
21122;SDS011;10719;48.130;11.630;2023-05-29T10:00:49;11.13;;;3.47;;
21122;SDS011;10719;48.130;11.630;2023-05-29T10:03:16;11.57;;;3.58;;
21122;SDS011;10719;48.130;11.630;2023-05-29T10:05:43;9.00;;;3.10;;
21122;SDS011;10719;48.130;11.630;2023-05-29T10:08:14;11.13;;;3.63;;
21122;SDS011;10719;48.130;11.630;2023-05-29T10:10:43;12.43;;;3.70;;
21122;SDS011;10719;48.130;11.630;2023-05-29T10:13:11;7.40;;;2.90;;
21122;SDS011;10719;48.130;11.630;2023-05-29T10:15:39;9.05;;;3.03;;
21122;SDS011;10719;48.130;11.630;2023-05-29T10:18:07;10.57;;;2.92;;
21122;SDS011;10719;48.130;11.630;2023-05-29T10:20:59;10.63;;;3.67;;
21122;SDS011;10719;48.130;11.630;2023-05-29T10:23:26;7.47;;;2.85;;
21122;SDS011;10719;48.130;11.630;2023-05-29T10:25:57;8.73;;;2.80;;
21122;SDS011;10719;48.130;11.630;2023-05-29T10:28:30;7.03;;;2.75;;
21122;SDS011;10719;48.130;11.630;2023-05-29T10:31:00;8.20;;;2.63;;
21122;SDS011;10719;48.130;11.630;2023-05-29T10:38:47;8.57;;;2.55;;
21122;SDS011;10719;48.130;11.630;2023-05-29T10:43:53;8.27;;;2.50;;
21122;SDS011;10719;48.130;11.630;2023-05-29T10:49:19;9.60;;;3.83;;
21122;SDS011;10719;48.130;11.630;2023-05-29T10:51:45;7.47;;;2.72;;
21122;SDS011;10719;48.130;11.630;2023-05-29T10:54:11;13.05;;;3.40;;
21122;SDS011;10719;48.130;11.630;2023-05-29T10:56:39;6.57;;;2.83;;
21122;SDS011;10719;48.130;11.630;2023-05-29T10:59:06;6.95;;;2.72;;
21122;SDS011;10719;48.130;11.630;2023-05-29T11:01:33;10.05;;;2.90;;
21122;SDS011;10719;48.130;11.630;2023-05-29T11:06:40;8.85;;;3.00;;
21122;SDS011;10719;48.130;11.630;2023-05-29T11:09:07;12.95;;;3.80;;
21122;SDS011;10719;48.130;11.630;2023-05-29T11:20:04;5.30;;;2.13;;
21122;SDS011;10719;48.130;11.630;2023-05-29T11:25:14;7.82;;;2.78;;
21122;SDS011;10719;48.130;11.630;2023-05-29T11:27:43;8.95;;;3.20;;
21122;SDS011;10719;48.130;11.630;2023-05-29T11:30:09;9.93;;;3.30;;
21122;SDS011;10719;48.130;11.630;2023-05-29T11:32:36;7.97;;;2.80;;
21122;SDS011;10719;48.130;11.630;2023-05-29T11:35:04;9.07;;;2.65;;
21122;SDS011;10719;48.130;11.630;2023-05-29T11:37:34;11.43;;;3.10;;
21122;SDS011;10719;48.130;11.630;2023-05-29T11:40:02;8.20;;;2.95;;
21122;SDS011;10719;48.130;11.630;2023-05-29T11:42:30;8.00;;;3.05;;
21122;SDS011;10719;48.130;11.630;2023-05-29T11:45:09;11.70;;;2.90;;
21122;SDS011;10719;48.130;11.630;2023-05-29T11:50:23;8.65;;;3.63;;
21122;SDS011;10719;48.130;11.630;2023-05-29T11:52:52;10.18;;;5.50;;
21122;SDS011;10719;48.130;11.630;2023-05-29T11:55:19;12.55;;;5.90;;
21122;SDS011;10719;48.130;11.630;2023-05-29T11:57:45;14.02;;;5.85;;
21122;SDS011;10719;48.130;11.630;2023-05-29T12:00:13;13.10;;;6.82;;
21122;SDS011;10719;48.130;11.630;2023-05-29T12:02:39;8.80;;;2.97;;
21122;SDS011;10719;48.130;11.630;2023-05-29T12:05:07;12.13;;;4.72;;
21122;SDS011;10719;48.130;11.630;2023-05-29T12:07:33;8.13;;;2.88;;
21122;SDS011;10719;48.130;11.630;2023-05-29T12:12:55;7.07;;;2.72;;
21122;SDS011;10719;48.130;11.630;2023-05-29T12:15:22;9.50;;;2.58;;
21122;SDS011;10719;48.130;11.630;2023-05-29T12:17:49;9.23;;;3.00;;
21122;SDS011;10719;48.130;11.630;2023-05-29T12:20:15;8.30;;;2.80;;
21122;SDS011;10719;48.130;11.630;2023-05-29T12:22:42;7.68;;;2.63;;
21122;SDS011;10719;48.130;11.630;2023-05-29T12:27:39;10.18;;;3.00;;
21122;SDS011;10719;48.130;11.630;2023-05-29T12:30:11;10.07;;;2.80;;
21122;SDS011;10719;48.130;11.630;2023-05-29T12:32:44;8.73;;;2.92;;
21122;SDS011;10719;48.130;11.630;2023-05-29T12:37:44;7.65;;;2.53;;
21122;SDS011;10719;48.130;11.630;2023-05-29T12:40:25;9.45;;;3.00;;
21122;SDS011;10719;48.130;11.630;2023-05-29T12:45:26;8.85;;;2.67;;
21122;SDS011;10719;48.130;11.630;2023-05-29T12:47:53;13.80;;;3.40;;
21122;SDS011;10719;48.130;11.630;2023-05-29T12:50:24;6.10;;;2.42;;
21122;SDS011;10719;48.130;11.630;2023-05-29T12:55:24;7.53;;;3.15;;
21122;SDS011;10719;48.130;11.630;2023-05-29T12:57:50;6.57;;;2.70;;
21122;SDS011;10719;48.130;11.630;2023-05-29T13:00:17;6.03;;;2.38;;
21122;SDS011;10719;48.130;11.630;2023-05-29T13:02:44;7.55;;;2.58;;
21122;SDS011;10719;48.130;11.630;2023-05-29T13:05:10;7.53;;;2.45;;
21122;SDS011;10719;48.130;11.630;2023-05-29T13:07:35;7.38;;;2.40;;
21122;SDS011;10719;48.130;11.630;2023-05-29T13:10:01;5.97;;;2.47;;
21122;SDS011;10719;48.130;11.630;2023-05-29T13:12:27;8.27;;;2.83;;
21122;SDS011;10719;48.130;11.630;2023-05-29T13:14:53;5.93;;;2.40;;
21122;SDS011;10719;48.130;11.630;2023-05-29T13:17:21;7.72;;;2.80;;
21122;SDS011;10719;48.130;11.630;2023-05-29T13:19:46;8.80;;;2.88;;
21122;SDS011;10719;48.130;11.630;2023-05-29T13:22:12;10.10;;;3.20;;
21122;SDS011;10719;48.130;11.630;2023-05-29T13:24:38;7.55;;;2.67;;
21122;SDS011;10719;48.130;11.630;2023-05-29T13:27:03;7.55;;;2.55;;
21122;SDS011;10719;48.130;11.630;2023-05-29T13:29:30;6.63;;;2.28;;
21122;SDS011;10719;48.130;11.630;2023-05-29T13:31:56;7.88;;;2.60;;
21122;SDS011;10719;48.130;11.630;2023-05-29T13:34:21;7.07;;;2.70;;
21122;SDS011;10719;48.130;11.630;2023-05-29T13:36:50;7.43;;;2.85;;
21122;SDS011;10719;48.130;11.630;2023-05-29T13:39:16;6.25;;;2.28;;
21122;SDS011;10719;48.130;11.630;2023-05-29T13:41:41;7.22;;;2.60;;
21122;SDS011;10719;48.130;11.630;2023-05-29T13:44:07;10.23;;;3.35;;
21122;SDS011;10719;48.130;11.630;2023-05-29T13:46:32;8.82;;;2.70;;
21122;SDS011;10719;48.130;11.630;2023-05-29T13:48:58;9.25;;;2.58;;
21122;SDS011;10719;48.130;11.630;2023-05-29T13:51:23;6.50;;;2.63;;
21122;SDS011;10719;48.130;11.630;2023-05-29T13:53:49;8.27;;;2.42;;
21122;SDS011;10719;48.130;11.630;2023-05-29T13:56:15;6.85;;;2.67;;
21122;SDS011;10719;48.130;11.630;2023-05-29T13:58:40;7.18;;;2.67;;
21122;SDS011;10719;48.130;11.630;2023-05-29T14:01:06;8.43;;;2.80;;
21122;SDS011;10719;48.130;11.630;2023-05-29T14:03:31;5.43;;;2.13;;
21122;SDS011;10719;48.130;11.630;2023-05-29T14:05:57;5.43;;;2.50;;
21122;SDS011;10719;48.130;11.630;2023-05-29T14:08:23;8.37;;;3.30;;
21122;SDS011;10719;48.130;11.630;2023-05-29T14:10:48;9.77;;;2.63;;
21122;SDS011;10719;48.130;11.630;2023-05-29T14:13:15;6.57;;;2.65;;
21122;SDS011;10719;48.130;11.630;2023-05-29T14:15:41;7.95;;;2.78;;
21122;SDS011;10719;48.130;11.630;2023-05-29T14:18:07;9.65;;;2.95;;
21122;SDS011;10719;48.130;11.630;2023-05-29T14:20:33;8.48;;;2.50;;
21122;SDS011;10719;48.130;11.630;2023-05-29T14:22:58;7.57;;;2.70;;
21122;SDS011;10719;48.130;11.630;2023-05-29T14:25:24;8.43;;;2.65;;
21122;SDS011;10719;48.130;11.630;2023-05-29T14:27:50;7.72;;;2.55;;
21122;SDS011;10719;48.130;11.630;2023-05-29T14:30:16;7.43;;;2.90;;
21122;SDS011;10719;48.130;11.630;2023-05-29T14:32:42;6.88;;;2.30;;
21122;SDS011;10719;48.130;11.630;2023-05-29T14:35:08;5.93;;;2.38;;
21122;SDS011;10719;48.130;11.630;2023-05-29T14:37:35;7.03;;;2.45;;
21122;SDS011;10719;48.130;11.630;2023-05-29T14:40:01;6.65;;;2.88;;
21122;SDS011;10719;48.130;11.630;2023-05-29T14:42:26;7.45;;;2.65;;
21122;SDS011;10719;48.130;11.630;2023-05-29T14:44:52;9.00;;;3.17;;
21122;SDS011;10719;48.130;11.630;2023-05-29T14:47:18;8.27;;;2.53;;
21122;SDS011;10719;48.130;11.630;2023-05-29T14:49:43;4.95;;;2.25;;
21122;SDS011;10719;48.130;11.630;2023-05-29T14:52:09;7.50;;;2.70;;
21122;SDS011;10719;48.130;11.630;2023-05-29T14:54:35;8.02;;;2.58;;
21122;SDS011;10719;48.130;11.630;2023-05-29T14:57:00;7.90;;;2.55;;
21122;SDS011;10719;48.130;11.630;2023-05-29T14:59:26;7.43;;;2.30;;
21122;SDS011;10719;48.130;11.630;2023-05-29T15:01:52;9.48;;;2.85;;
21122;SDS011;10719;48.130;11.630;2023-05-29T15:04:19;4.80;;;2.25;;
21122;SDS011;10719;48.130;11.630;2023-05-29T15:06:44;6.20;;;2.42;;
21122;SDS011;10719;48.130;11.630;2023-05-29T15:09:10;6.40;;;2.45;;
21122;SDS011;10719;48.130;11.630;2023-05-29T15:11:36;6.65;;;2.60;;
21122;SDS011;10719;48.130;11.630;2023-05-29T15:14:01;7.07;;;2.55;;
21122;SDS011;10719;48.130;11.630;2023-05-29T15:16:27;7.65;;;2.50;;